Time;durP1;ratioP1;P1;durP2;ratioP2;P2;SDS_P1;SDS_P2;PMS_P1;PMS_P2;Temp;Humidity;BMP_temperature;BMP_pressure;BME280_temperature;BME280_humidity;BME280_pressure;Samples;Min_cycle;Max_cycle;Signal;HPM_P1;HPM_P2
2023/06/08 00:02:18;;;;;;;14.00;8.87;;;17.90;50.90;;;;;;5075900;28;20173;-69
2023/06/08 00:04:44;;;;;;;15.80;8.77;;;17.90;52.10;;;;;;5075980;28;20251;-69
2023/06/08 00:07:14;;;;;;;17.17;9.60;;;17.80;53.10;;;;;;5075722;28;20208;-69
2023/06/08 00:09:40;;;;;;;15.10;9.87;;;17.80;54.00;;;;;;5057796;28;20176;-68
2023/06/08 00:12:06;;;;;;;17.97;9.40;;;17.70;57.00;;;;;;5057696;28;20176;-69
2023/06/08 00:14:34;;;;;;;15.93;9.63;;;17.60;59.90;;;;;;5075845;28;20574;-69
2023/06/08 00:17:02;;;;;;;16.47;10.13;;;17.50;65.40;;;;;;5075772;28;20669;-68
2023/06/08 00:19:33;;;;;;;18.87;10.27;;;17.50;68.00;;;;;;5075769;28;20226;-68
2023/06/08 00:22:04;;;;;;;21.97;10.20;;;17.40;72.70;;;;;;5075713;28;20176;-68
2023/06/08 00:24:31;;;;;;;17.70;10.37;;;17.40;74.80;;;;;;5075495;28;20169;-69
2023/06/08 00:26:57;;;;;;;17.20;10.20;;;17.30;76.40;;;;;;5075494;28;20648;-68
2023/06/08 00:29:22;;;;;;;14.50;10.20;;;17.30;75.80;;;;;;5057577;28;20176;-69
2023/06/08 00:31:48;;;;;;;16.83;10.60;;;17.20;76.80;;;;;;5075494;28;20647;-69
2023/06/08 00:34:15;;;;;;;17.07;10.27;;;17.20;78.40;;;;;;5075103;28;20164;-69
2023/06/08 00:36:40;;;;;;;16.77;10.40;;;17.20;80.30;;;;;;5075539;28;20188;-69
2023/06/08 00:39:06;;;;;;;15.93;10.30;;;17.20;82.70;;;;;;5056958;28;20536;-68
2023/06/08 00:41:32;;;;;;;19.83;10.23;;;17.10;85.70;;;;;;5075273;28;20628;-69
2023/06/08 00:43:57;;;;;;;15.23;10.40;;;17.10;87.70;;;;;;5075253;28;20179;-69
2023/06/08 00:46:25;;;;;;;17.87;10.10;;;17.10;87.60;;;;;;5074602;28;20303;-68
2023/06/08 00:48:53;;;;;;;17.10;10.40;;;17.00;90.20;;;;;;5075215;28;20263;-68
2023/06/08 00:51:21;;;;;;;15.70;9.80;;;17.00;91.40;;;;;;5057095;28;20229;-68
2023/06/08 00:53:47;;;;;;;13.10;10.03;;;16.90;91.60;;;;;;5074739;28;20215;-69
2023/06/08 00:56:16;;;;;;;18.90;10.43;;;16.90;92.00;;;;;;5057104;28;20204;-69
2023/06/08 00:58:46;;;;;;;19.87;10.83;;;16.90;92.20;;;;;;5074903;28;20271;-69
2023/06/08 01:01:18;;;;;;;16.90;10.73;;;16.80;94.00;;;;;;5074780;28;20168;-68
2023/06/08 01:03:47;;;;;;;18.03;10.83;;;16.80;95.30;;;;;;5074899;28;20262;-68
2023/06/08 01:06:16;;;;;;;15.23;9.87;;;16.80;95.50;;;;;;5074808;28;20212;-68
2023/06/08 01:09:03;;;;;;;19.07;11.33;;;16.70;95.70;;;;;;5056418;28;20169;-69
2023/06/08 01:11:58;;;;;;;18.73;10.87;;;16.70;97.30;;;;;;5056710;28;20179;-69
2023/06/08 01:14:50;;;;;;;18.00;10.43;;;16.70;98.10;;;;;;5074641;28;20195;-69
2023/06/08 01:17:18;;;;;;;16.73;10.43;;;16.60;97.90;;;;;;5043575;28;20185;-68
2023/06/08 01:20:12;;;;;;;17.37;11.33;;;16.60;99.00;;;;;;5074486;28;20161;-68
2023/06/08 01:23:09;;;;;;;18.47;11.27;;;16.60;99.00;;;;;;5074270;28;20177;-68
2023/06/08 01:25:36;;;;;;;19.93;10.83;;;16.60;99.10;;;;;;5074319;28;20330;-68
2023/06/08 01:28:12;;;;;;;15.27;10.40;;;16.60;99.30;;;;;;5056462;28;20279;-69
2023/06/08 01:30:46;;;;;;;19.10;11.20;;;16.60;98.40;;;;;;5056288;28;20183;-69
2023/06/08 01:33:16;;;;;;;15.27;10.47;;;16.60;98.10;;;;;;5056322;28;20179;-69
2023/06/08 01:35:45;;;;;;;18.70;11.10;;;16.50;98.80;;;;;;5038484;28;20221;-69
2023/06/08 01:38:45;;;;;;;15.40;11.20;;;16.40;99.90;;;;;;5033723;28;20224;-67
2023/06/08 01:41:17;;;;;;;16.63;10.47;;;16.40;99.90;;;;;;5032924;28;20216;-69
2023/06/08 01:43:47;;;;;;;14.83;11.10;;;16.30;99.90;;;;;;5034581;28;20178;-69
2023/06/08 01:46:14;;;;;;;17.07;11.00;;;16.30;99.90;;;;;;5033983;28;20216;-68
2023/06/08 01:48:42;;;;;;;16.87;10.93;;;16.30;99.90;;;;;;5034102;28;20634;-68
2023/06/08 01:51:09;;;;;;;12.50;10.10;;;16.20;99.90;;;;;;5032502;28;20236;-68
2023/06/08 01:53:35;;;;;;;18.83;11.03;;;16.20;99.90;;;;;;5033918;28;20166;-68
2023/06/08 01:56:01;;;;;;;20.23;11.20;;;16.20;99.90;;;;;;5033730;28;20544;-68
2023/06/08 01:58:26;;;;;;;16.87;11.13;;;16.10;99.90;;;;;;5032077;28;20529;-69
2023/06/08 02:00:52;;;;;;;19.20;11.47;;;16.10;99.90;;;;;;5033861;28;20224;-68
2023/06/08 02:03:17;;;;;;;18.07;11.07;;;16.10;99.90;;;;;;5033769;28;20665;-68
2023/06/08 02:05:43;;;;;;;22.00;11.00;;;16.10;99.90;;;;;;5033318;28;20308;-68
2023/06/08 02:08:09;;;;;;;25.90;11.63;;;16.10;99.90;;;;;;5033616;28;20580;-70
2023/06/08 02:10:34;;;;;;;17.40;11.40;;;16.00;99.90;;;;;;5033809;28;20212;-68
2023/06/08 02:13:00;;;;;;;18.93;11.63;;;16.00;99.90;;;;;;5034063;28;20181;-70
2023/06/08 02:15:26;;;;;;;27.23;12.07;;;16.00;99.90;;;;;;5033708;28;20678;-68
2023/06/08 02:17:52;;;;;;;19.10;10.87;;;15.90;99.90;;;;;;5033626;28;20538;-68
2023/06/08 02:20:17;;;;;;;19.37;11.10;;;15.90;99.90;;;;;;5033191;28;20174;-68
2023/06/08 02:22:45;;;;;;;17.27;11.47;;;15.90;99.90;;;;;;5033346;28;20237;-68
2023/06/08 02:25:11;;;;;;;17.57;11.40;;;15.80;99.90;;;;;;5033322;28;20264;-68
2023/06/08 02:27:37;;;;;;;24.70;11.50;;;15.90;99.90;;;;;;5033627;28;20272;-68
2023/06/08 02:30:08;;;;;;;18.37;11.43;;;15.80;99.90;;;;;;5033529;28;20171;-68
2023/06/08 02:32:33;;;;;;;19.23;11.87;;;15.90;99.90;;;;;;5033347;28;20177;-69
2023/06/08 02:35:03;;;;;;;37.17;13.60;;;15.80;99.90;;;;;;5049571;28;20208;-69
2023/06/08 02:37:30;;;;;;;13.37;10.73;;;15.80;99.90;;;;;;5073140;28;20259;-68
2023/06/08 02:39:56;;;;;;;18.90;11.43;;;15.80;99.90;;;;;;5073363;28;20176;-67
2023/06/08 02:42:22;;;;;;;23.23;11.73;;;15.70;99.90;;;;;;5073245;28;20521;-69
2023/06/08 02:44:48;;;;;;;15.53;11.23;;;15.70;99.90;;;;;;5073302;28;20167;-68
2023/06/08 02:47:14;;;;;;;16.53;11.43;;;15.70;99.90;;;;;;5073020;28;20208;-68
2023/06/08 02:49:40;;;;;;;17.63;11.77;;;15.60;99.90;;;;;;5072673;28;20176;-68
2023/06/08 02:52:06;;;;;;;19.63;11.57;;;15.50;99.90;;;;;;5072925;28;20175;-68
2023/06/08 02:54:32;;;;;;;20.20;12.13;;;15.50;99.90;;;;;;5073130;28;20165;-69
2023/06/08 02:56:58;;;;;;;17.23;12.10;;;15.50;99.90;;;;;;5055190;28;20176;-69
2023/06/08 02:59:23;;;;;;;20.60;11.73;;;15.50;99.90;;;;;;5055204;28;20202;-69
2023/06/08 03:01:53;;;;;;;23.60;12.00;;;15.40;99.90;;;;;;5055012;28;20276;-69
2023/06/08 03:04:30;;;;;;;17.50;11.90;;;15.40;99.90;;;;;;5054572;28;20529;-68
2023/06/08 03:06:56;;;;;;;17.13;11.73;;;15.30;99.90;;;;;;5054937;28;20652;-68
2023/06/08 03:09:28;;;;;;;23.07;12.80;;;15.30;99.90;;;;;;5076346;28;20160;-68
2023/06/08 03:11:54;;;;;;;19.30;12.63;;;15.30;99.90;;;;;;5076928;28;20176;-68
2023/06/08 03:14:20;;;;;;;21.17;12.50;;;15.30;99.90;;;;;;5076847;28;20173;-70
2023/06/08 03:16:46;;;;;;;18.33;12.23;;;15.20;99.90;;;;;;5076678;28;20646;-69
2023/06/08 03:19:13;;;;;;;18.30;12.30;;;15.20;99.90;;;;;;5058473;28;20176;-68
2023/06/08 03:21:41;;;;;;;17.60;12.70;;;15.20;99.90;;;;;;5076403;28;20164;-68
2023/06/08 03:24:11;;;;;;;24.53;12.47;;;15.20;99.90;;;;;;5058687;28;20173;-68
2023/06/08 03:26:37;;;;;;;18.97;11.80;;;15.10;99.90;;;;;;5076336;28;20208;-68
2023/06/08 03:29:03;;;;;;;23.23;12.97;;;15.10;99.90;;;;;;5058241;28;20177;-68
2023/06/08 03:31:29;;;;;;;20.20;12.10;;;15.00;99.90;;;;;;5057889;28;20214;-69
2023/06/08 03:33:56;;;;;;;21.37;13.10;;;15.10;99.90;;;;;;5076054;28;20577;-69
2023/06/08 03:36:28;;;;;;;17.83;12.87;;;15.10;99.90;;;;;;5075981;28;20216;-69
2023/06/08 03:38:53;;;;;;;21.60;12.93;;;15.00;99.90;;;;;;5076716;28;20184;-69
2023/06/08 03:41:19;;;;;;;20.50;12.30;;;15.10;99.90;;;;;;5076093;28;20661;-69
2023/06/08 03:43:45;;;;;;;25.40;12.60;;;15.00;99.90;;;;;;5076481;28;20203;-68
2023/06/08 03:46:11;;;;;;;26.47;13.20;;;15.00;99.90;;;;;;5075791;28;20743;-69
2023/06/08 03:48:36;;;;;;;22.90;13.17;;;15.00;99.90;;;;;;5057728;28;20179;-70
2023/06/08 03:51:02;;;;;;;26.73;13.33;;;15.00;99.90;;;;;;5076074;28;20168;-69
2023/06/08 03:53:28;;;;;;;17.20;12.60;;;15.00;99.90;;;;;;5057320;28;20175;-69
2023/06/08 03:55:53;;;;;;;21.77;13.20;;;15.10;99.90;;;;;;5076222;28;20505;-69
2023/06/08 03:58:19;;;;;;;21.37;12.67;;;15.10;99.90;;;;;;5075917;28;20676;-69
2023/06/08 04:00:45;;;;;;;21.17;12.97;;;15.20;99.90;;;;;;5075794;28;20599;-69
2023/06/08 04:03:11;;;;;;;24.40;13.20;;;15.40;99.90;;;;;;5075089;28;20180;-70
2023/06/08 04:05:37;;;;;;;24.13;12.43;;;15.50;99.90;;;;;;5075370;28;20227;-70
2023/06/08 04:08:02;;;;;;;17.90;12.37;;;15.60;99.90;;;;;;5075729;28;20176;-69
2023/06/08 04:10:28;;;;;;;20.23;13.23;;;15.50;99.90;;;;;;5074966;28;20746;-69
2023/06/08 04:12:54;;;;;;;18.63;12.57;;;15.60;99.90;;;;;;5075558;28;20168;-69
2023/06/08 04:15:20;;;;;;;18.40;12.87;;;15.70;99.90;;;;;;5057375;28;20807;-70
2023/06/08 04:17:48;;;;;;;19.63;12.97;;;15.70;98.10;;;;;;5075244;28;20185;-69
2023/06/08 04:20:13;;;;;;;22.10;12.53;;;15.80;94.90;;;;;;5074614;28;20165;-70
2023/06/08 04:22:39;;;;;;;19.80;12.47;;;15.90;94.40;;;;;;5074721;28;20211;-69
2023/06/08 04:25:05;;;;;;;21.37;12.60;;;16.10;88.70;;;;;;5075302;28;20602;-69
2023/06/08 04:27:31;;;;;;;22.93;12.83;;;16.30;76.30;;;;;;5075326;28;20189;-69
2023/06/08 04:29:57;;;;;;;21.20;13.07;;;16.30;76.20;;;;;;5074899;28;20161;-70
2023/06/08 04:32:23;;;;;;;20.03;12.63;;;16.50;69.50;;;;;;5074449;28;20160;-70
2023/06/08 04:34:51;;;;;;;20.00;11.93;;;16.60;53.00;;;;;;5074646;28;20208;-70
2023/06/08 04:37:17;;;;;;;22.33;13.13;;;16.70;50.50;;;;;;5056802;28;20176;-69
2023/06/08 04:39:43;;;;;;;21.10;12.30;;;16.90;44.90;;;;;;5056935;28;20722;-71
2023/06/08 04:42:08;;;;;;;16.70;11.80;;;16.90;39.10;;;;;;5056682;28;20226;-69
2023/06/08 04:44:34;;;;;;;23.23;12.40;;;17.10;30.30;;;;;;5074806;28;20161;-70
2023/06/08 04:47:01;;;;;;;25.93;12.07;;;17.40;30.80;;;;;;5074075;28;20247;-70
2023/06/08 04:49:31;;;;;;;17.90;12.17;;;17.50;23.00;;;;;;5074552;28;20169;-69
2023/06/08 04:52:00;;;;;;;21.43;12.27;;;17.70;8.20;;;;;;5056386;28;20183;-69
2023/06/08 04:54:27;;;;;;;19.23;11.63;;;17.80;11.20;;;;;;5074298;28;20622;-69
2023/06/08 04:56:59;;;;;;;21.57;12.20;;;17.80;9.40;;;;;;5074554;28;20163;-69
2023/06/08 04:59:28;;;;;;;22.60;11.30;;;17.70;13.40;;;;;;5055764;28;20176;-70
2023/06/08 05:01:54;;;;;;;20.23;12.50;;;17.80;11.00;;;;;;5056582;28;20215;-70
2023/06/08 05:04:20;;;;;;;17.20;12.18;;;18.20;1.50;;;;;;5073824;28;20604;-69
2023/06/08 05:06:47;;;;;;;19.58;11.10;;;18.30;1.00;;;;;;5073949;28;20200;-70
2023/06/08 05:09:13;;;;;;;17.00;11.52;;;18.80;1.00;;;;;;5073170;28;20596;-70
2023/06/08 05:11:39;;;;;;;18.20;12.02;;;19.30;1.00;;;;;;5073963;28;20218;-70
2023/06/08 05:14:05;;;;;;;15.80;11.00;;;19.00;1.00;;;;;;5073705;28;20161;-70
2023/06/08 05:16:30;;;;;;;20.48;12.18;;;19.70;1.00;;;;;;5073993;28;20183;-69
2023/06/08 05:18:56;;;;;;;18.45;11.05;;;19.90;1.00;;;;;;5073819;28;20263;-69
2023/06/08 05:21:22;;;;;;;18.83;11.02;;;20.60;1.00;;;;;;5073775;28;20165;-70
2023/06/08 05:23:47;;;;;;;18.60;12.02;;;20.70;1.00;;;;;;5073126;28;20172;-71
2023/06/08 05:26:13;;;;;;;22.35;11.15;;;20.80;1.00;;;;;;5055524;28;20219;-69
2023/06/08 05:28:39;;;;;;;17.58;11.00;;;21.10;1.00;;;;;;5073243;28;20160;-70
2023/06/08 05:31:05;;;;;;;18.13;11.10;;;21.20;1.00;;;;;;5072451;28;20176;-71
2023/06/08 05:33:30;;;;;;;24.75;12.23;;;21.50;1.00;;;;;;5073440;28;20173;-71
2023/06/08 05:35:56;;;;;;;20.80;10.98;;;22.30;1.00;;;;;;5072418;28;20370;-70
2023/06/08 05:38:22;;;;;;;20.95;12.10;;;22.40;99.90;;;;;;5072847;28;20164;-70
2023/06/08 05:40:48;;;;;;;18.88;12.05;;;22.30;1.00;;;;;;5073157;28;20206;-71
2023/06/08 05:43:13;;;;;;;26.10;11.95;;;21.80;1.00;;;;;;5072260;28;20526;-71
2023/06/08 05:45:39;;;;;;;20.70;11.43;;;21.70;1.00;;;;;;5054685;28;20255;-70
2023/06/08 05:48:05;;;;;;;18.40;11.75;;;21.80;1.00;;;;;;5072885;28;20624;-70
2023/06/08 05:50:31;;;;;;;19.98;12.45;;;21.70;1.00;;;;;;5072861;28;20184;-71
2023/06/08 05:52:56;;;;;;;22.83;12.13;;;22.20;1.00;;;;;;5072431;28;20518;-70
2023/06/08 05:55:22;;;;;;;23.20;11.80;;;23.10;4.70;;;;;;5054595;28;20180;-70
2023/06/08 05:57:48;;;;;;;26.30;12.18;;;23.60;99.90;;;;;;5072147;28;20592;-71
2023/06/08 06:00:14;;;;;;;16.30;11.15;;;23.70;99.90;;;;;;5072330;28;20173;-71
2023/06/08 06:02:41;;;;;;;20.23;12.02;;;22.90;99.90;;;;;;5072906;28;20176;-71
2023/06/08 06:05:10;;;;;;;21.42;11.35;;;22.40;99.90;;;;;;5072364;28;20176;-74
2023/06/08 06:07:36;;;;;;;16.80;11.35;;;22.40;10.10;;;;;;5072479;28;20180;-70
2023/06/08 06:10:03;;;;;;;15.13;11.38;;;22.90;1.00;;;;;;5071772;28;20703;-71
2023/06/08 06:12:29;;;;;;;18.65;11.27;;;23.30;1.00;;;;;;5072252;28;20275;-71
2023/06/08 06:14:55;;;;;;;20.48;11.18;;;24.20;1.00;;;;;;5073065;28;20192;-71
2023/06/08 06:17:21;;;;;;;17.63;10.68;;;25.10;99.90;;;;;;5054953;28;20178;-71
2023/06/08 06:19:47;;;;;;;19.55;11.20;;;24.30;1.00;;;;;;5055035;28;20196;-70
2023/06/08 06:22:13;;;;;;;19.52;12.00;;;24.00;1.00;;;;;;5054102;28;20657;-71
2023/06/08 06:24:38;;;;;;;20.77;12.15;;;23.60;1.00;;;;;;5072195;28;20197;-71
2023/06/08 06:27:05;;;;;;;22.38;12.15;;;24.60;1.00;;;;;;5071581;28;20246;-70
2023/06/08 06:29:31;;;;;;;18.48;11.55;;;24.90;1.00;;;;;;5071446;28;20265;-70
2023/06/08 06:31:56;;;;;;;19.75;11.50;;;24.30;99.90;;;;;;5072245;28;20207;-72
2023/06/08 06:34:22;;;;;;;21.30;11.40;;;24.70;1.00;;;;;;5054294;28;20273;-70
2023/06/08 06:36:48;;;;;;;18.00;10.93;;;24.30;1.00;;;;;;5072278;28;20176;-72
2023/06/08 06:39:14;;;;;;;20.85;11.55;;;24.60;99.90;;;;;;5072274;28;20262;-70
2023/06/08 06:41:40;;;;;;;18.45;11.48;;;23.00;99.90;;;;;;5071881;28;20172;-71
2023/06/08 06:44:06;;;;;;;17.08;11.43;;;23.60;39.30;;;;;;5071703;28;20172;-69
2023/06/08 06:46:32;;;;;;;16.38;12.02;;;23.60;1.00;;;;;;5052697;28;20212;-71
2023/06/08 06:48:58;;;;;;;21.35;11.15;;;23.70;1.00;;;;;;5071735;28;20539;-71
2023/06/08 06:51:24;;;;;;;17.63;11.93;;;25.10;1.00;;;;;;5052854;28;20259;-70
2023/06/08 06:53:49;;;;;;;16.13;11.10;;;26.30;99.90;;;;;;5072050;28;20619;-70
2023/06/08 06:56:15;;;;;;;14.77;11.55;;;26.40;1.00;;;;;;5071201;28;20175;-69
2023/06/08 06:58:44;;;;;;;14.75;11.20;;;26.00;1.00;;;;;;5071382;28;20229;-70
2023/06/08 07:01:15;;;;;;;14.30;11.25;;;25.80;99.90;;;;;;5072176;28;20177;-71
2023/06/08 07:03:45;;;;;;;17.00;11.43;;;25.80;8.90;;;;;;5072051;28;20200;-70
2023/06/08 07:06:11;;;;;;;22.00;11.80;;;26.80;99.90;;;;;;5071610;28;20429;-71
2023/06/08 07:08:37;;;;;;;15.27;11.63;;;27.30;99.90;;;;;;5071683;28;20522;-69
2023/06/08 07:11:03;;;;;;;19.50;12.32;;;27.50;29.10;;;;;;5070789;28;20219;-69
2023/06/08 07:13:29;;;;;;;14.70;11.52;;;28.00;1.00;;;;;;5071174;28;20164;-70
2023/06/08 07:15:55;;;;;;;19.65;12.20;;;27.90;1.00;;;;;;5070982;28;20168;-68
2023/06/08 07:18:20;;;;;;;17.42;12.13;;;26.40;99.90;;;;;;5070874;28;20177;-70
2023/06/08 07:20:47;;;;;;;18.15;11.70;;;26.10;1.00;;;;;;5071567;28;20542;-70
2023/06/08 07:23:12;;;;;;;15.02;12.23;;;25.50;1.00;;;;;;5053285;28;20173;-70
2023/06/08 07:25:38;;;;;;;15.00;12.32;;;25.60;1.00;;;;;;5070440;28;20544;-69
2023/06/08 07:28:05;;;;;;;18.38;12.35;;;26.10;1.00;;;;;;5071665;28;20631;-70
2023/06/08 07:30:31;;;;;;;19.20;12.43;;;26.60;1.00;;;;;;5071152;28;20169;-70
2023/06/08 07:33:01;;;;;;;23.48;12.52;;;26.80;99.90;;;;;;5053942;28;20654;-70
2023/06/08 07:35:27;;;;;;;15.45;12.35;;;26.80;1.00;;;;;;5070315;28;20707;-71
2023/06/08 07:37:53;;;;;;;15.05;12.18;;;26.10;1.00;;;;;;5069854;28;20247;-71
2023/06/08 07:40:19;;;;;;;15.85;12.48;;;25.70;99.90;;;;;;5070939;28;20176;-70
2023/06/08 07:42:45;;;;;;;15.60;11.90;;;26.00;99.90;;;;;;5072109;28;20177;-70
2023/06/08 07:45:12;;;;;;;14.95;12.13;;;27.00;1.00;;;;;;5071327;28;20238;-69
2023/06/08 07:47:38;;;;;;;16.92;12.15;;;26.80;1.00;;;;;;5071628;28;20214;-69
2023/06/08 07:50:08;;;;;;;17.60;12.20;;;26.80;1.00;;;;;;5053891;28;20169;-71
2023/06/08 07:52:34;;;;;;;16.73;11.77;;;26.90;1.00;;;;;;5070316;28;20169;-69
2023/06/08 07:54:59;;;;;;;16.95;12.75;;;28.10;1.00;;;;;;5043716;28;20230;-70
2023/06/08 07:57:26;;;;;;;21.50;13.63;;;27.00;99.90;;;;;;5067017;28;20173;-71
2023/06/08 07:59:51;;;;;;;16.15;12.30;;;26.30;1.00;;;;;;5056224;28;20580;-69
2023/06/08 08:02:17;;;;;;;19.00;12.85;;;26.10;99.90;;;;;;5074113;28;20183;-68
2023/06/08 08:04:43;;;;;;;19.23;13.27;;;26.60;1.00;;;;;;5074580;28;20161;-69
2023/06/08 08:07:08;;;;;;;18.00;13.00;;;27.10;99.90;;;;;;5074506;28;20261;-70
2023/06/08 08:09:35;;;;;;;18.33;12.35;;;27.80;98.20;;;;;;5074002;28;20237;-70
2023/06/08 08:12:01;;;;;;;18.05;13.07;;;29.00;1.00;;;;;;5074351;28;20257;-71
2023/06/08 08:14:27;;;;;;;15.80;12.02;;;29.90;1.00;;;;;;5073629;28;20227;-69
2023/06/08 08:16:52;;;;;;;16.17;12.63;;;30.00;1.00;;;;;;5074208;28;20565;-70
2023/06/08 08:19:18;;;;;;;15.57;12.32;;;29.20;1.00;;;;;;5074674;28;20234;-70
2023/06/08 08:21:44;;;;;;;18.90;13.50;;;29.10;1.00;;;;;;5073517;28;20177;-71
2023/06/08 08:24:10;;;;;;;18.50;13.38;;;29.60;1.00;;;;;;5074128;28;20191;-72
2023/06/08 08:26:40;;;;;;;24.60;13.13;;;30.90;99.90;;;;;;5074515;28;20221;-70
2023/06/08 08:29:06;;;;;;;20.45;12.73;;;31.20;99.90;;;;;;5062237;28;20172;-70
2023/06/08 08:31:32;;;;;;;17.85;13.55;;;31.00;99.90;;;;;;5074026;28;20172;-71
2023/06/08 08:33:57;;;;;;;15.40;11.98;;;31.20;99.90;;;;;;5073958;28;20654;-69
2023/06/08 08:36:23;;;;;;;16.90;13.13;;;31.30;99.90;;;;;;5073148;28;20224;-72
2023/06/08 08:38:49;;;;;;;21.27;12.70;;;31.40;99.90;;;;;;5072466;28;20195;-71
2023/06/08 08:41:19;;;;;;;18.30;12.45;;;30.60;99.90;;;;;;5073853;28;20187;-70
2023/06/08 08:44:03;;;;;;;20.98;12.57;;;31.20;99.90;;;;;;5055985;28;20177;-69
2023/06/08 08:46:34;;;;;;;15.07;13.27;;;32.30;99.90;;;;;;5073428;28;20555;-70
2023/06/08 08:49:06;;;;;;;15.50;12.50;;;31.50;99.90;;;;;;5072658;28;20175;-71
2023/06/08 08:51:38;;;;;;;16.33;11.93;;;30.90;99.90;;;;;;5046795;28;20192;-70
2023/06/08 08:54:04;;;;;;;19.30;13.20;;;31.70;99.90;;;;;;5071015;28;20218;-71
2023/06/08 08:56:35;;;;;;;17.83;12.82;;;32.60;99.90;;;;;;5073809;28;20721;-70
2023/06/08 08:59:03;;;;;;;18.50;13.27;;;32.40;99.90;;;;;;5073615;28;20651;-71
2023/06/08 09:01:32;;;;;;;19.80;14.23;;;32.10;99.90;;;;;;5072857;28;20531;-70
2023/06/08 09:03:58;;;;;;;21.50;14.20;;;30.60;99.90;;;;;;5073241;28;20168;-70
2023/06/08 09:06:23;;;;;;;20.50;13.13;;;29.90;99.90;;;;;;5072683;28;20204;-70
2023/06/08 09:08:49;;;;;;;20.35;12.98;;;29.90;1.00;;;;;;5073558;28;20171;-70
2023/06/08 09:11:16;;;;;;;15.35;13.05;;;30.50;99.90;;;;;;5072740;28;20176;-71
2023/06/08 09:13:42;;;;;;;17.20;13.60;;;30.20;99.90;;;;;;5071806;28;20172;-70
2023/06/08 09:16:14;;;;;;;19.30;13.32;;;29.80;99.90;;;;;;5073829;28;20183;-71
2023/06/08 09:18:41;;;;;;;18.98;14.10;;;29.60;1.00;;;;;;5073047;28;20169;-70
2023/06/08 09:21:24;;;;;;;18.00;14.63;;;29.40;1.00;;;;;;5054567;28;20663;-70
2023/06/08 09:24:03;;;;;;;20.38;14.15;;;29.10;1.00;;;;;;5054562;28;20214;-71
2023/06/08 09:26:31;;;;;;;20.52;14.38;;;29.70;1.00;;;;;;5072428;28;20261;-73
2023/06/08 09:28:56;;;;;;;17.08;13.50;;;30.40;1.00;;;;;;5073339;28;20168;-71
2023/06/08 09:31:22;;;;;;;20.58;14.18;;;30.90;99.90;;;;;;5072882;28;20195;-72
2023/06/08 09:33:48;;;;;;;20.50;14.52;;;31.40;99.90;;;;;;5054564;28;20655;-70
2023/06/08 09:36:17;;;;;;;21.92;14.35;;;30.30;99.90;;;;;;5060937;28;20216;-70
2023/06/08 09:38:55;;;;;;;18.30;13.88;;;29.70;1.00;;;;;;5046887;28;20223;-71
2023/06/08 09:41:21;;;;;;;20.73;15.13;;;28.70;1.00;;;;;;5061948;28;20223;-71
2023/06/08 09:43:48;;;;;;;22.83;13.13;;;28.30;99.90;;;;;;5062352;28;20184;-70
2023/06/08 09:46:32;;;;;;;18.60;16.05;;;28.80;85.80;;;;;;5070885;28;20220;-70
2023/06/08 09:48:57;;;;;;;20.13;14.77;;;28.90;1.00;;;;;;5053676;28;20169;-71
2023/06/08 09:51:24;;;;;;;22.45;14.20;;;28.50;97.70;;;;;;5070625;28;20275;-71
2023/06/08 09:53:55;;;;;;;17.88;14.88;;;29.40;1.00;;;;;;5071199;28;20599;-72
2023/06/08 09:56:23;;;;;;;21.00;14.70;;;29.90;1.00;;;;;;5053503;28;20195;-70
2023/06/08 09:58:54;;;;;;;20.13;15.05;;;29.30;1.00;;;;;;5071935;28;20165;-70
2023/06/08 10:01:38;;;;;;;29.90;15.32;;;29.10;1.00;;;;;;5066742;28;20172;-71
2023/06/08 10:04:12;;;;;;;19.17;14.60;;;28.70;1.00;;;;;;5069901;28;20267;-71
2023/06/08 10:06:39;;;;;;;16.25;13.98;;;29.20;1.00;;;;;;5053203;28;20214;-71
2023/06/08 10:09:08;;;;;;;19.98;14.07;;;30.10;1.00;;;;;;5072158;28;20624;-71
2023/06/08 10:11:34;;;;;;;17.40;14.75;;;30.10;1.00;;;;;;5071503;28;20630;-71
2023/06/08 10:13:59;;;;;;;20.65;13.30;;;29.20;1.00;;;;;;5070709;28;20177;-71
2023/06/08 10:16:25;;;;;;;20.63;14.00;;;29.50;1.00;;;;;;5072019;28;20642;-71
2023/06/08 10:18:52;;;;;;;18.27;13.25;;;29.90;1.00;;;;;;5053359;28;20188;-72
2023/06/08 10:21:18;;;;;;;20.52;14.50;;;29.10;1.00;;;;;;5071500;28;20268;-71
2023/06/08 10:23:44;;;;;;;21.30;14.38;;;29.00;1.00;;;;;;5054084;28;20259;-71
2023/06/08 10:26:11;;;;;;;20.98;13.63;;;27.80;1.00;;;;;;5071775;28;20667;-72
2023/06/08 10:29:06;;;;;;;17.30;13.73;;;27.30;7.20;;;;;;5072260;28;20168;-71
2023/06/08 10:31:38;;;;;;;16.70;14.65;;;27.40;1.00;;;;;;5072046;28;20247;-72
2023/06/08 10:34:14;;;;;;;19.05;12.38;;;27.40;1.00;;;;;;5072030;28;20179;-72
2023/06/08 10:36:42;;;;;;;27.52;14.40;;;27.80;1.00;;;;;;5072479;28;20168;-71
2023/06/08 10:39:12;;;;;;;17.23;13.95;;;28.40;99.90;;;;;;5072407;28;20285;-70
2023/06/08 10:41:39;;;;;;;15.80;13.68;;;28.30;99.90;;;;;;5072405;28;20204;-70
2023/06/08 10:44:05;;;;;;;16.30;12.90;;;28.00;99.90;;;;;;5072717;28;20667;-70
2023/06/08 10:46:43;;;;;;;16.48;13.13;;;27.90;1.00;;;;;;5053978;28;20208;-70
2023/06/08 10:49:09;;;;;;;17.30;14.05;;;28.70;99.90;;;;;;5071143;28;20172;-71
2023/06/08 10:51:43;;;;;;;17.73;15.10;;;29.50;1.00;;;;;;5072310;28;20179;-69
2023/06/08 10:54:09;;;;;;;16.92;12.90;;;28.80;1.00;;;;;;5072686;28;20271;-71
2023/06/08 10:56:46;;;;;;;16.92;13.40;;;29.30;1.00;;;;;;5055140;28;20203;-70
2023/06/08 10:59:12;;;;;;;15.18;12.20;;;28.60;33.10;;;;;;5072050;28;20199;-71
2023/06/08 11:01:37;;;;;;;14.57;12.05;;;28.70;1.00;;;;;;5071885;28;20215;-70
2023/06/08 11:04:05;;;;;;;19.05;14.60;;;28.10;74.00;;;;;;5071449;28;20657;-71
2023/06/08 11:06:33;;;;;;;18.75;13.23;;;28.00;99.90;;;;;;5060952;28;20211;-70
2023/06/08 11:08:59;;;;;;;12.65;11.35;;;27.60;1.00;;;;;;5070868;28;20183;-71
2023/06/08 11:11:25;;;;;;;13.95;12.48;;;27.70;99.90;;;;;;5071024;28;20260;-71
2023/06/08 11:13:52;;;;;;;14.10;10.95;;;28.00;99.90;;;;;;5070879;28;20177;-71
2023/06/08 11:16:21;;;;;;;13.95;11.07;;;28.60;7.80;;;;;;5070921;28;20196;-70
2023/06/08 11:18:46;;;;;;;15.18;11.80;;;27.90;1.00;;;;;;5052888;28;20172;-71
2023/06/08 11:21:12;;;;;;;12.45;11.07;;;26.90;99.90;;;;;;5070621;28;20662;-71
2023/06/08 11:23:38;;;;;;;14.55;11.00;;;27.40;1.00;;;;;;5071133;28;20653;-71
2023/06/08 11:26:03;;;;;;;14.30;10.48;;;28.00;99.90;;;;;;5070677;28;20207;-72
2023/06/08 11:28:29;;;;;;;14.10;10.07;;;28.80;1.00;;;;;;5071323;28;20172;-71
2023/06/08 11:30:55;;;;;;;15.65;10.25;;;28.40;1.00;;;;;;5074368;28;20527;-72
2023/06/08 11:33:21;;;;;;;11.50;10.30;;;27.50;99.90;;;;;;5074699;28;20535;-72
2023/06/08 11:35:51;;;;;;;11.30;10.27;;;27.40;1.00;;;;;;5074575;28;20220;-72
2023/06/08 11:38:17;;;;;;;14.95;10.68;;;27.70;99.90;;;;;;5074710;28;20250;-70
2023/06/08 11:40:42;;;;;;;16.40;11.70;;;27.10;1.00;;;;;;5075019;28;20215;-71
2023/06/08 11:43:12;;;;;;;13.30;10.50;;;27.50;1.00;;;;;;5074784;28;20246;-70
2023/06/08 11:45:39;;;;;;;12.27;9.05;;;27.50;99.90;;;;;;5056377;28;20193;-70
2023/06/08 11:48:06;;;;;;;11.85;10.63;;;27.30;99.90;;;;;;5056048;28;20181;-70
2023/06/08 11:50:31;;;;;;;16.60;10.80;;;27.10;1.00;;;;;;5074812;28;20179;-69
2023/06/08 11:53:00;;;;;;;13.57;11.65;;;27.00;1.00;;;;;;5074740;28;20176;-71
2023/06/08 11:55:26;;;;;;;13.68;11.15;;;26.70;1.00;;;;;;5074793;28;20171;-71
2023/06/08 11:57:55;;;;;;;13.18;10.45;;;26.60;99.90;;;;;;5074360;28;20172;-70
2023/06/08 12:00:22;;;;;;;12.27;9.70;;;27.00;24.70;;;;;;5073687;28;20241;-70
2023/06/08 12:02:49;;;;;;;12.57;9.90;;;26.90;1.00;;;;;;5056323;28;20186;-69
2023/06/08 12:05:27;;;;;;;15.40;10.98;;;26.40;1.00;;;;;;5074717;28;20204;-71
2023/06/08 12:08:01;;;;;;;11.77;9.82;;;26.30;1.00;;;;;;5074428;28;20188;-70
2023/06/08 12:10:36;;;;;;;12.65;10.05;;;26.70;99.90;;;;;;5074441;28;20183;-70
2023/06/08 12:13:13;;;;;;;14.73;9.43;;;26.10;1.00;;;;;;5074260;28;20191;-69
2023/06/08 12:15:47;;;;;;;12.88;10.07;;;26.40;1.00;;;;;;5074935;28;20168;-70
2023/06/08 12:18:16;;;;;;;12.20;8.52;;;26.30;99.90;;;;;;5070720;28;20160;-71
2023/06/08 12:20:42;;;;;;;24.17;9.07;;;26.20;1.00;;;;;;5056313;28;20181;-70
2023/06/08 12:23:12;;;;;;;8.70;7.57;;;26.80;99.90;;;;;;5073763;28;20176;-72
2023/06/08 12:25:39;;;;;;;10.32;8.77;;;26.70;1.00;;;;;;5074373;28;20179;-70
2023/06/08 12:28:05;;;;;;;11.57;8.35;;;26.60;1.00;;;;;;5073928;28;20524;-70
2023/06/08 12:30:31;;;;;;;10.45;7.55;;;26.50;1.00;;;;;;5073852;28;20249;-71
2023/06/08 12:32:56;;;;;;;9.88;7.97;;;26.40;19.80;;;;;;5073860;28;20563;-71
2023/06/08 12:35:23;;;;;;;12.18;9.05;;;26.40;1.00;;;;;;5074143;28;20721;-71